sensor_id;sensor_type;location;lat;lon;timestamp;temperature;humidity
66096;SHT31;53861;53.422;14.530;2022-09-03T00:01:47;13.30;78.03
66096;SHT31;53861;53.422;14.530;2022-09-03T00:04:21;13.34;75.47
66096;SHT31;53861;53.422;14.530;2022-09-03T00:06:58;13.28;76.82
66096;SHT31;53861;53.422;14.530;2022-09-03T00:09:30;13.26;77.83
66096;SHT31;53861;53.422;14.530;2022-09-03T00:12:02;13.30;78.01
66096;SHT31;53861;53.422;14.530;2022-09-03T00:14:35;13.28;77.92
66096;SHT31;53861;53.422;14.530;2022-09-03T00:17:07;13.34;78.52
66096;SHT31;53861;53.422;14.530;2022-09-03T00:19:40;13.28;76.22
66096;SHT31;53861;53.422;14.530;2022-09-03T00:22:14;13.31;78.49
66096;SHT31;53861;53.422;14.530;2022-09-03T00:24:43;13.26;78.14
66096;SHT31;53861;53.422;14.530;2022-09-03T00:27:15;13.26;80.65
66096;SHT31;53861;53.422;14.530;2022-09-03T00:29:47;13.21;79.86
66096;SHT31;53861;53.422;14.530;2022-09-03T00:32:17;13.21;79.58
66096;SHT31;53861;53.422;14.530;2022-09-03T00:34:50;13.10;77.77
66096;SHT31;53861;53.422;14.530;2022-09-03T00:37:17;13.04;79.57
66096;SHT31;53861;53.422;14.530;2022-09-03T00:39:53;12.97;80.91
66096;SHT31;53861;53.422;14.530;2022-09-03T00:42:30;13.00;79.55
66096;SHT31;53861;53.422;14.530;2022-09-03T00:45:14;12.90;79.25
66096;SHT31;53861;53.422;14.530;2022-09-03T00:48:08;12.93;80.57
66096;SHT31;53861;53.422;14.530;2022-09-03T00:51:01;12.87;80.51
66096;SHT31;53861;53.422;14.530;2022-09-03T00:53:32;12.94;82.04
66096;SHT31;53861;53.422;14.530;2022-09-03T00:56:05;12.90;81.66
66096;SHT31;53861;53.422;14.530;2022-09-03T00:58:47;12.82;78.81
66096;SHT31;53861;53.422;14.530;2022-09-03T01:01:25;12.87;78.77
66096;SHT31;53861;53.422;14.530;2022-09-03T01:04:01;12.94;79.59
66096;SHT31;53861;53.422;14.530;2022-09-03T01:06:38;12.93;77.91
66096;SHT31;53861;53.422;14.530;2022-09-03T01:09:22;12.84;81.33
66096;SHT31;53861;53.422;14.530;2022-09-03T01:11:59;12.83;79.14
66096;SHT31;53861;53.422;14.530;2022-09-03T01:14:37;12.83;79.96
66096;SHT31;53861;53.422;14.530;2022-09-03T01:17:15;12.82;77.84
66096;SHT31;53861;53.422;14.530;2022-09-03T01:26:02;12.87;78.14
66096;SHT31;53861;53.422;14.530;2022-09-03T01:28:48;12.76;79.43
66096;SHT31;53861;53.422;14.530;2022-09-03T01:31:28;12.77;80.97
66096;SHT31;53861;53.422;14.530;2022-09-03T01:34:09;12.70;79.64
66096;SHT31;53861;53.422;14.530;2022-09-03T01:36:44;12.70;77.98
66096;SHT31;53861;53.422;14.530;2022-09-03T01:39:20;12.70;79.01
66096;SHT31;53861;53.422;14.530;2022-09-03T01:41:59;12.63;80.03
66096;SHT31;53861;53.422;14.530;2022-09-03T01:44:51;12.57;80.90
66096;SHT31;53861;53.422;14.530;2022-09-03T01:47:29;12.60;79.66
66096;SHT31;53861;53.422;14.530;2022-09-03T01:50:02;12.57;79.61
66096;SHT31;53861;53.422;14.530;2022-09-03T01:52:41;12.57;80.32
66096;SHT31;53861;53.422;14.530;2022-09-03T01:55:21;12.59;80.87
66096;SHT31;53861;53.422;14.530;2022-09-03T01:57:53;12.53;81.60
66096;SHT31;53861;53.422;14.530;2022-09-03T02:00:23;12.48;81.05
66096;SHT31;53861;53.422;14.530;2022-09-03T02:02:52;12.49;83.56
66096;SHT31;53861;53.422;14.530;2022-09-03T02:05:21;12.45;82.46
66096;SHT31;53861;53.422;14.530;2022-09-03T02:07:55;12.38;82.78
66096;SHT31;53861;53.422;14.530;2022-09-03T02:10:26;12.35;82.93
66096;SHT31;53861;53.422;14.530;2022-09-03T02:12:58;12.36;83.72
66096;SHT31;53861;53.422;14.530;2022-09-03T02:15:27;12.32;83.76
66096;SHT31;53861;53.422;14.530;2022-09-03T02:18:01;12.32;82.41
66096;SHT31;53861;53.422;14.530;2022-09-03T02:20:29;12.32;81.92
66096;SHT31;53861;53.422;14.530;2022-09-03T02:22:57;12.33;82.95
66096;SHT31;53861;53.422;14.530;2022-09-03T02:25:29;12.35;83.74
66096;SHT31;53861;53.422;14.530;2022-09-03T02:27:58;12.26;83.58
66096;SHT31;53861;53.422;14.530;2022-09-03T02:30:28;12.31;83.91
66096;SHT31;53861;53.422;14.530;2022-09-03T02:32:55;12.28;84.70
66096;SHT31;53861;53.422;14.530;2022-09-03T02:35:22;12.25;84.88
66096;SHT31;53861;53.422;14.530;2022-09-03T02:37:49;12.20;84.88
66096;SHT31;53861;53.422;14.530;2022-09-03T02:40:17;12.17;84.70
66096;SHT31;53861;53.422;14.530;2022-09-03T02:42:45;12.18;85.03
66096;SHT31;53861;53.422;14.530;2022-09-03T02:45:20;12.18;85.23
66096;SHT31;53861;53.422;14.530;2022-09-03T02:47:54;12.06;83.93
66096;SHT31;53861;53.422;14.530;2022-09-03T02:50:22;12.14;84.55
66096;SHT31;53861;53.422;14.530;2022-09-03T02:52:49;12.21;83.68
66096;SHT31;53861;53.422;14.530;2022-09-03T02:55:17;12.20;83.09
66096;SHT31;53861;53.422;14.530;2022-09-03T02:57:45;12.14;82.46
66096;SHT31;53861;53.422;14.530;2022-09-03T03:00:13;12.18;83.67
66096;SHT31;53861;53.422;14.530;2022-09-03T03:02:40;12.18;83.27
66096;SHT31;53861;53.422;14.530;2022-09-03T03:05:16;12.17;83.59
66096;SHT31;53861;53.422;14.530;2022-09-03T03:07:43;12.05;83.96
66096;SHT31;53861;53.422;14.530;2022-09-03T03:10:11;12.04;84.24
66096;SHT31;53861;53.422;14.530;2022-09-03T03:12:38;12.08;84.39
66096;SHT31;53861;53.422;14.530;2022-09-03T03:15:06;12.02;83.48
66096;SHT31;53861;53.422;14.530;2022-09-03T03:17:33;12.01;83.45
66096;SHT31;53861;53.422;14.530;2022-09-03T03:20:00;12.02;85.07
66096;SHT31;53861;53.422;14.530;2022-09-03T03:22:29;11.99;84.23
66096;SHT31;53861;53.422;14.530;2022-09-03T03:24:56;11.99;84.36
66096;SHT31;53861;53.422;14.530;2022-09-03T03:27:23;12.01;85.04
66096;SHT31;53861;53.422;14.530;2022-09-03T03:29:51;11.94;84.67
66096;SHT31;53861;53.422;14.530;2022-09-03T03:32:19;11.97;84.75
66096;SHT31;53861;53.422;14.530;2022-09-03T03:34:46;11.94;84.74
66096;SHT31;53861;53.422;14.530;2022-09-03T03:37:13;11.99;85.85
66096;SHT31;53861;53.422;14.530;2022-09-03T03:39:42;11.94;84.83
66096;SHT31;53861;53.422;14.530;2022-09-03T03:42:09;11.92;84.21
66096;SHT31;53861;53.422;14.530;2022-09-03T03:44:36;11.95;84.81
66096;SHT31;53861;53.422;14.530;2022-09-03T03:47:04;11.94;85.53
66096;SHT31;53861;53.422;14.530;2022-09-03T03:49:31;11.95;86.76
66096;SHT31;53861;53.422;14.530;2022-09-03T03:51:58;11.94;85.31
66096;SHT31;53861;53.422;14.530;2022-09-03T03:54:27;11.92;85.87
66096;SHT31;53861;53.422;14.530;2022-09-03T03:56:56;11.92;86.84
66096;SHT31;53861;53.422;14.530;2022-09-03T03:59:24;11.88;86.63
66096;SHT31;53861;53.422;14.530;2022-09-03T04:01:54;11.78;84.96
66096;SHT31;53861;53.422;14.530;2022-09-03T04:04:21;11.81;87.32
66096;SHT31;53861;53.422;14.530;2022-09-03T04:06:48;11.80;85.97
66096;SHT31;53861;53.422;14.530;2022-09-03T04:09:15;11.87;87.05
66096;SHT31;53861;53.422;14.530;2022-09-03T04:11:43;11.84;86.74
66096;SHT31;53861;53.422;14.530;2022-09-03T04:14:11;11.87;86.27
66096;SHT31;53861;53.422;14.530;2022-09-03T04:16:38;11.82;86.02
66096;SHT31;53861;53.422;14.530;2022-09-03T04:19:06;11.88;87.02
66096;SHT31;53861;53.422;14.530;2022-09-03T04:21:33;11.87;87.02
66096;SHT31;53861;53.422;14.530;2022-09-03T04:24:03;11.80;87.27
66096;SHT31;53861;53.422;14.530;2022-09-03T04:26:32;11.81;86.79
66096;SHT31;53861;53.422;14.530;2022-09-03T04:29:02;11.82;87.75
66096;SHT31;53861;53.422;14.530;2022-09-03T04:31:31;11.73;86.97
66096;SHT31;53861;53.422;14.530;2022-09-03T04:33:59;11.71;86.21
66096;SHT31;53861;53.422;14.530;2022-09-03T04:36:51;11.71;86.48
66096;SHT31;53861;53.422;14.530;2022-09-03T04:39:18;11.82;87.49
66096;SHT31;53861;53.422;14.530;2022-09-03T04:41:46;11.85;86.57
66096;SHT31;53861;53.422;14.530;2022-09-03T04:44:13;11.84;86.38
66096;SHT31;53861;53.422;14.530;2022-09-03T04:46:42;11.85;87.67
66096;SHT31;53861;53.422;14.530;2022-09-03T04:49:12;11.81;86.52
66096;SHT31;53861;53.422;14.530;2022-09-03T04:51:39;11.88;86.22
66096;SHT31;53861;53.422;14.530;2022-09-03T04:54:07;11.87;86.06
66096;SHT31;53861;53.422;14.530;2022-09-03T04:56:35;11.95;85.13
66096;SHT31;53861;53.422;14.530;2022-09-03T04:59:06;11.99;86.01
66096;SHT31;53861;53.422;14.530;2022-09-03T05:01:36;12.05;84.74
66096;SHT31;53861;53.422;14.530;2022-09-03T05:04:05;12.04;83.98
66096;SHT31;53861;53.422;14.530;2022-09-03T05:06:33;12.11;83.83
66096;SHT31;53861;53.422;14.530;2022-09-03T05:09:02;12.18;84.58
66096;SHT31;53861;53.422;14.530;2022-09-03T05:11:29;12.17;85.15
66096;SHT31;53861;53.422;14.530;2022-09-03T05:13:58;12.15;86.50
66096;SHT31;53861;53.422;14.530;2022-09-03T05:16:26;12.20;86.92
66096;SHT31;53861;53.422;14.530;2022-09-03T05:18:56;12.24;84.95
66096;SHT31;53861;53.422;14.530;2022-09-03T05:21:26;12.38;84.75
66096;SHT31;53861;53.422;14.530;2022-09-03T05:23:53;12.43;82.79
66096;SHT31;53861;53.422;14.530;2022-09-03T05:26:22;12.48;82.18
66096;SHT31;53861;53.422;14.530;2022-09-03T05:28:53;12.62;82.87
66096;SHT31;53861;53.422;14.530;2022-09-03T05:31:21;12.75;82.60
66096;SHT31;53861;53.422;14.530;2022-09-03T05:33:52;12.80;83.14
66096;SHT31;53861;53.422;14.530;2022-09-03T05:36:22;12.90;83.18
66096;SHT31;53861;53.422;14.530;2022-09-03T05:38:52;13.02;81.38
66096;SHT31;53861;53.422;14.530;2022-09-03T05:41:20;13.14;80.72
66096;SHT31;53861;53.422;14.530;2022-09-03T05:43:49;13.21;79.90
66096;SHT31;53861;53.422;14.530;2022-09-03T05:46:21;13.43;81.67
66096;SHT31;53861;53.422;14.530;2022-09-03T05:48:51;13.69;78.47
66096;SHT31;53861;53.422;14.530;2022-09-03T05:51:18;14.04;77.33
66096;SHT31;53861;53.422;14.530;2022-09-03T05:53:47;14.91;76.08
66096;SHT31;53861;53.422;14.530;2022-09-03T05:56:17;15.59;72.85
66096;SHT31;53861;53.422;14.530;2022-09-03T05:58:46;16.13;69.89
66096;SHT31;53861;53.422;14.530;2022-09-03T06:01:15;16.72;68.92
66096;SHT31;53861;53.422;14.530;2022-09-03T06:03:44;17.14;68.00
66096;SHT31;53861;53.422;14.530;2022-09-03T06:06:12;17.71;65.01
66096;SHT31;53861;53.422;14.530;2022-09-03T06:08:40;18.17;65.81
66096;SHT31;53861;53.422;14.530;2022-09-03T06:11:10;18.93;64.62
66096;SHT31;53861;53.422;14.530;2022-09-03T06:13:38;19.10;62.69
66096;SHT31;53861;53.422;14.530;2022-09-03T06:16:06;19.70;63.81
66096;SHT31;53861;53.422;14.530;2022-09-03T06:18:34;20.29;59.08
66096;SHT31;53861;53.422;14.530;2022-09-03T06:21:03;20.49;60.18
66096;SHT31;53861;53.422;14.530;2022-09-03T06:23:32;20.75;58.54
66096;SHT31;53861;53.422;14.530;2022-09-03T06:26:01;21.06;59.04
66096;SHT31;53861;53.422;14.530;2022-09-03T06:28:29;21.10;57.99
66096;SHT31;53861;53.422;14.530;2022-09-03T06:30:58;21.61;58.40
66096;SHT31;53861;53.422;14.530;2022-09-03T06:33:27;21.21;59.32
66096;SHT31;53861;53.422;14.530;2022-09-03T06:35:55;21.30;56.31
66096;SHT31;53861;53.422;14.530;2022-09-03T06:38:25;22.05;55.54
66096;SHT31;53861;53.422;14.530;2022-09-03T06:40:53;22.13;59.67
66096;SHT31;53861;53.422;14.530;2022-09-03T06:43:21;22.40;52.64
66096;SHT31;53861;53.422;14.530;2022-09-03T06:45:53;22.40;56.37
66096;SHT31;53861;53.422;14.530;2022-09-03T06:48:22;22.76;53.07
66096;SHT31;53861;53.422;14.530;2022-09-03T06:50:53;23.22;56.77
66096;SHT31;53861;53.422;14.530;2022-09-03T06:53:22;23.29;55.16
66096;SHT31;53861;53.422;14.530;2022-09-03T06:55:53;23.39;54.36
66096;SHT31;53861;53.422;14.530;2022-09-03T06:58:21;23.39;55.95
66096;SHT31;53861;53.422;14.530;2022-09-03T07:00:49;24.02;53.01
66096;SHT31;53861;53.422;14.530;2022-09-03T07:03:19;24.77;51.84
66096;SHT31;53861;53.422;14.530;2022-09-03T07:05:47;25.33;51.30
66096;SHT31;53861;53.422;14.530;2022-09-03T07:08:14;24.85;49.80
66096;SHT31;53861;53.422;14.530;2022-09-03T07:10:45;25.02;48.69
66096;SHT31;53861;53.422;14.530;2022-09-03T07:13:13;24.87;49.22
66096;SHT31;53861;53.422;14.530;2022-09-03T07:15:41;25.28;51.80
66096;SHT31;53861;53.422;14.530;2022-09-03T07:18:08;25.50;49.95
66096;SHT31;53861;53.422;14.530;2022-09-03T07:20:35;25.43;48.22
66096;SHT31;53861;53.422;14.530;2022-09-03T07:23:04;25.89;43.78
66096;SHT31;53861;53.422;14.530;2022-09-03T07:25:31;25.08;48.22
66096;SHT31;53861;53.422;14.530;2022-09-03T07:27:58;24.94;51.41
66096;SHT31;53861;53.422;14.530;2022-09-03T07:30:26;24.78;51.07
66096;SHT31;53861;53.422;14.530;2022-09-03T07:32:53;25.41;51.87
66096;SHT31;53861;53.422;14.530;2022-09-03T07:35:20;25.72;45.81
66096;SHT31;53861;53.422;14.530;2022-09-03T07:37:50;25.93;50.80
66096;SHT31;53861;53.422;14.530;2022-09-03T07:40:21;25.80;49.16
66096;SHT31;53861;53.422;14.530;2022-09-03T07:42:48;26.31;49.92
66096;SHT31;53861;53.422;14.530;2022-09-03T07:45:16;25.97;48.51
66096;SHT31;53861;53.422;14.530;2022-09-03T07:47:46;26.23;51.84
66096;SHT31;53861;53.422;14.530;2022-09-03T07:50:14;27.59;44.27
66096;SHT31;53861;53.422;14.530;2022-09-03T07:52:42;27.66;41.86
66096;SHT31;53861;53.422;14.530;2022-09-03T07:55:09;27.00;47.97
66096;SHT31;53861;53.422;14.530;2022-09-03T07:57:38;26.78;46.53
66096;SHT31;53861;53.422;14.530;2022-09-03T08:00:07;27.86;40.71
66096;SHT31;53861;53.422;14.530;2022-09-03T08:02:34;27.70;45.08
66096;SHT31;53861;53.422;14.530;2022-09-03T08:05:02;28.05;42.02
66096;SHT31;53861;53.422;14.530;2022-09-03T08:07:29;28.95;43.11
66096;SHT31;53861;53.422;14.530;2022-09-03T08:09:57;29.35;41.87
66096;SHT31;53861;53.422;14.530;2022-09-03T08:12:24;28.35;39.67
66096;SHT31;53861;53.422;14.530;2022-09-03T08:14:53;29.44;40.47
66096;SHT31;53861;53.422;14.530;2022-09-03T08:17:22;29.47;39.03
66096;SHT31;53861;53.422;14.530;2022-09-03T08:19:50;29.77;39.74
66096;SHT31;53861;53.422;14.530;2022-09-03T08:22:17;29.84;36.05
66096;SHT31;53861;53.422;14.530;2022-09-03T08:24:45;29.60;40.95
66096;SHT31;53861;53.422;14.530;2022-09-03T08:27:13;30.63;34.93
66096;SHT31;53861;53.422;14.530;2022-09-03T08:29:40;29.14;43.11
66096;SHT31;53861;53.422;14.530;2022-09-03T08:32:09;29.65;42.78
66096;SHT31;53861;53.422;14.530;2022-09-03T08:34:39;30.53;42.00
66096;SHT31;53861;53.422;14.530;2022-09-03T08:37:06;30.73;37.81
66096;SHT31;53861;53.422;14.530;2022-09-03T08:39:34;30.80;38.30
66096;SHT31;53861;53.422;14.530;2022-09-03T08:42:32;30.42;38.15
66096;SHT31;53861;53.422;14.530;2022-09-03T08:45:06;31.21;40.22
66096;SHT31;53861;53.422;14.530;2022-09-03T08:47:44;30.84;34.20
66096;SHT31;53861;53.422;14.530;2022-09-03T08:50:23;31.57;39.33
66096;SHT31;53861;53.422;14.530;2022-09-03T08:52:56;30.55;37.36
66096;SHT31;53861;53.422;14.530;2022-09-03T08:55:42;30.72;34.37
66096;SHT31;53861;53.422;14.530;2022-09-03T08:58:17;31.01;38.65
66096;SHT31;53861;53.422;14.530;2022-09-03T09:00:51;31.24;39.51
66096;SHT31;53861;53.422;14.530;2022-09-03T09:03:35;31.84;37.20
66096;SHT31;53861;53.422;14.530;2022-09-03T09:06:12;31.40;37.60
66096;SHT31;53861;53.422;14.530;2022-09-03T09:08:47;32.18;35.89
66096;SHT31;53861;53.422;14.530;2022-09-03T09:11:26;32.26;36.74
66096;SHT31;53861;53.422;14.530;2022-09-03T09:14:03;32.63;36.28
66096;SHT31;53861;53.422;14.530;2022-09-03T09:16:38;32.20;39.08
66096;SHT31;53861;53.422;14.530;2022-09-03T09:19:25;32.10;36.46
66096;SHT31;53861;53.422;14.530;2022-09-03T09:22:00;32.66;37.32
66096;SHT31;53861;53.422;14.530;2022-09-03T09:24:36;31.54;37.62
66096;SHT31;53861;53.422;14.530;2022-09-03T09:27:05;32.32;39.25
66096;SHT31;53861;53.422;14.530;2022-09-03T09:29:35;33.30;38.89
66096;SHT31;53861;53.422;14.530;2022-09-03T09:32:03;33.73;33.48
66096;SHT31;53861;53.422;14.530;2022-09-03T09:34:35;33.21;32.68
66096;SHT31;53861;53.422;14.530;2022-09-03T09:37:05;32.83;38.10
66096;SHT31;53861;53.422;14.530;2022-09-03T09:39:33;32.71;37.47
66096;SHT31;53861;53.422;14.530;2022-09-03T09:42:04;32.53;36.39
66096;SHT31;53861;53.422;14.530;2022-09-03T09:44:34;32.59;35.50
66096;SHT31;53861;53.422;14.530;2022-09-03T09:47:04;32.22;32.73
66096;SHT31;53861;53.422;14.530;2022-09-03T09:49:40;33.20;35.28
66096;SHT31;53861;53.422;14.530;2022-09-03T09:52:12;33.64;29.82
66096;SHT31;53861;53.422;14.530;2022-09-03T09:54:41;33.31;38.25
66096;SHT31;53861;53.422;14.530;2022-09-03T09:57:14;33.69;34.10
66096;SHT31;53861;53.422;14.530;2022-09-03T09:59:43;32.76;34.96
66096;SHT31;53861;53.422;14.530;2022-09-03T10:02:13;34.02;30.34
66096;SHT31;53861;53.422;14.530;2022-09-03T10:04:42;34.90;35.54
66096;SHT31;53861;53.422;14.530;2022-09-03T10:07:28;32.64;29.47
66096;SHT31;53861;53.422;14.530;2022-09-03T10:10:03;34.01;35.01
66096;SHT31;53861;53.422;14.530;2022-09-03T10:12:36;33.68;31.49
66096;SHT31;53861;53.422;14.530;2022-09-03T10:15:18;33.35;29.21
66096;SHT31;53861;53.422;14.530;2022-09-03T10:17:55;32.36;37.45
66096;SHT31;53861;53.422;14.530;2022-09-03T10:20:32;33.68;32.25
66096;SHT31;53861;53.422;14.530;2022-09-03T10:23:10;33.82;32.06
66096;SHT31;53861;53.422;14.530;2022-09-03T10:25:46;33.71;32.56
66096;SHT31;53861;53.422;14.530;2022-09-03T10:28:20;34.42;30.73
66096;SHT31;53861;53.422;14.530;2022-09-03T10:31:16;34.43;28.76
66096;SHT31;53861;53.422;14.530;2022-09-03T10:33:48;33.76;28.74
66096;SHT31;53861;53.422;14.530;2022-09-03T10:36:23;33.50;31.57
66096;SHT31;53861;53.422;14.530;2022-09-03T10:38:53;34.22;32.52
66096;SHT31;53861;53.422;14.530;2022-09-03T10:41:32;35.24;30.01
66096;SHT31;53861;53.422;14.530;2022-09-03T10:44:22;34.93;29.74
66096;SHT31;53861;53.422;14.530;2022-09-03T10:47:00;35.17;31.80
66096;SHT31;53861;53.422;14.530;2022-09-03T10:49:40;35.85;31.65
66096;SHT31;53861;53.422;14.530;2022-09-03T10:52:18;35.58;27.98
66096;SHT31;53861;53.422;14.530;2022-09-03T10:54:59;34.52;29.81
66096;SHT31;53861;53.422;14.530;2022-09-03T10:57:40;33.99;28.29
66096;SHT31;53861;53.422;14.530;2022-09-03T11:00:11;33.03;32.71
66096;SHT31;53861;53.422;14.530;2022-09-03T11:03:00;33.76;34.27
66096;SHT31;53861;53.422;14.530;2022-09-03T11:05:33;33.01;32.02
66096;SHT31;53861;53.422;14.530;2022-09-03T11:08:09;33.59;29.42
66096;SHT31;53861;53.422;14.530;2022-09-03T11:10:40;33.73;27.40
66096;SHT31;53861;53.422;14.530;2022-09-03T11:13:12;33.91;29.31
66096;SHT31;53861;53.422;14.530;2022-09-03T11:15:47;32.91;29.29
66096;SHT31;53861;53.422;14.530;2022-09-03T11:18:19;32.76;28.57
66096;SHT31;53861;53.422;14.530;2022-09-03T11:20:50;33.51;26.96
66096;SHT31;53861;53.422;14.530;2022-09-03T11:23:23;32.02;30.68
66096;SHT31;53861;53.422;14.530;2022-09-03T11:25:53;31.27;33.72
66096;SHT31;53861;53.422;14.530;2022-09-03T11:28:28;32.76;36.22
66096;SHT31;53861;53.422;14.530;2022-09-03T11:31:09;33.47;29.35
66096;SHT31;53861;53.422;14.530;2022-09-03T11:33:42;33.54;30.59
66096;SHT31;53861;53.422;14.530;2022-09-03T11:36:11;34.10;31.87
66096;SHT31;53861;53.422;14.530;2022-09-03T11:38:41;33.58;33.31
66096;SHT31;53861;53.422;14.530;2022-09-03T11:41:14;31.52;32.85
66096;SHT31;53861;53.422;14.530;2022-09-03T11:43:42;32.01;33.04
66096;SHT31;53861;53.422;14.530;2022-09-03T11:46:12;30.98;29.63
66096;SHT31;53861;53.422;14.530;2022-09-03T11:48:46;30.42;30.41
66096;SHT31;53861;53.422;14.530;2022-09-03T11:51:19;31.45;29.77
66096;SHT31;53861;53.422;14.530;2022-09-03T11:53:56;30.88;32.14
66096;SHT31;53861;53.422;14.530;2022-09-03T11:56:24;31.06;29.26
66096;SHT31;53861;53.422;14.530;2022-09-03T11:59:01;30.45;29.98
66096;SHT31;53861;53.422;14.530;2022-09-03T12:01:31;28.73;32.47
66096;SHT31;53861;53.422;14.530;2022-09-03T12:03:59;27.88;34.09
66096;SHT31;53861;53.422;14.530;2022-09-03T12:06:57;29.27;35.05
66096;SHT31;53861;53.422;14.530;2022-09-03T12:09:46;29.77;31.45
66096;SHT31;53861;53.422;14.530;2022-09-03T12:12:31;30.75;30.17
66096;SHT31;53861;53.422;14.530;2022-09-03T12:15:10;29.74;36.71
66096;SHT31;53861;53.422;14.530;2022-09-03T12:17:47;30.31;39.04
66096;SHT31;53861;53.422;14.530;2022-09-03T12:20:37;30.70;29.34
66096;SHT31;53861;53.422;14.530;2022-09-03T12:23:05;29.04;34.63
66096;SHT31;53861;53.422;14.530;2022-09-03T12:25:34;27.66;38.74
66096;SHT31;53861;53.422;14.530;2022-09-03T12:28:11;27.12;37.95
66096;SHT31;53861;53.422;14.530;2022-09-03T12:30:39;26.31;40.20
66096;SHT31;53861;53.422;14.530;2022-09-03T12:33:07;27.09;33.83
66096;SHT31;53861;53.422;14.530;2022-09-03T12:35:35;27.71;36.91
66096;SHT31;53861;53.422;14.530;2022-09-03T12:38:04;27.17;34.94
66096;SHT31;53861;53.422;14.530;2022-09-03T12:40:31;26.37;39.35
66096;SHT31;53861;53.422;14.530;2022-09-03T12:43:13;26.81;34.64
66096;SHT31;53861;53.422;14.530;2022-09-03T12:45:45;26.85;37.20
66096;SHT31;53861;53.422;14.530;2022-09-03T12:48:13;27.83;38.51
66096;SHT31;53861;53.422;14.530;2022-09-03T12:50:42;26.98;38.21
66096;SHT31;53861;53.422;14.530;2022-09-03T12:53:11;26.23;34.97
66096;SHT31;53861;53.422;14.530;2022-09-03T12:55:42;25.56;36.00
66096;SHT31;53861;53.422;14.530;2022-09-03T12:58:16;25.77;40.92
66096;SHT31;53861;53.422;14.530;2022-09-03T13:00:47;27.02;39.41
66096;SHT31;53861;53.422;14.530;2022-09-03T13:03:23;28.21;41.51
66096;SHT31;53861;53.422;14.530;2022-09-03T13:05:56;28.07;34.55
66096;SHT31;53861;53.422;14.530;2022-09-03T13:08:26;27.10;35.43
66096;SHT31;53861;53.422;14.530;2022-09-03T13:10:58;26.65;38.54
66096;SHT31;53861;53.422;14.530;2022-09-03T13:13:28;26.08;39.59
66096;SHT31;53861;53.422;14.530;2022-09-03T13:16:10;25.61;38.03
66096;SHT31;53861;53.422;14.530;2022-09-03T13:18:46;25.10;39.47
66096;SHT31;53861;53.422;14.530;2022-09-03T13:21:20;26.61;40.66
66096;SHT31;53861;53.422;14.530;2022-09-03T13:24:06;27.49;35.87
66096;SHT31;53861;53.422;14.530;2022-09-03T13:26:43;28.02;39.60
66096;SHT31;53861;53.422;14.530;2022-09-03T13:29:38;28.00;38.20
66096;SHT31;53861;53.422;14.530;2022-09-03T13:32:14;27.43;38.27
66096;SHT31;53861;53.422;14.530;2022-09-03T13:34:49;26.55;36.33
66096;SHT31;53861;53.422;14.530;2022-09-03T13:37:24;25.76;37.90
66096;SHT31;53861;53.422;14.530;2022-09-03T13:39:55;26.01;38.10
66096;SHT31;53861;53.422;14.530;2022-09-03T13:42:30;26.34;40.46
66096;SHT31;53861;53.422;14.530;2022-09-03T13:45:04;26.91;39.55
66096;SHT31;53861;53.422;14.530;2022-09-03T13:47:39;27.60;38.95
66096;SHT31;53861;53.422;14.530;2022-09-03T13:50:30;27.47;38.77
66096;SHT31;53861;53.422;14.530;2022-09-03T13:53:06;27.57;41.29
66096;SHT31;53861;53.422;14.530;2022-09-03T13:55:40;26.86;37.74
66096;SHT31;53861;53.422;14.530;2022-09-03T13:58:18;26.65;37.59
66096;SHT31;53861;53.422;14.530;2022-09-03T14:00:53;25.58;36.76
66096;SHT31;53861;53.422;14.530;2022-09-03T14:03:32;25.52;38.26
66096;SHT31;53861;53.422;14.530;2022-09-03T14:06:06;25.72;40.09
66096;SHT31;53861;53.422;14.530;2022-09-03T14:08:42;25.83;40.19
66096;SHT31;53861;53.422;14.530;2022-09-03T14:11:22;25.84;38.95
66096;SHT31;53861;53.422;14.530;2022-09-03T14:14:01;26.23;36.55
66096;SHT31;53861;53.422;14.530;2022-09-03T14:16:38;26.41;40.18
66096;SHT31;53861;53.422;14.530;2022-09-03T14:19:14;26.85;39.10
66096;SHT31;53861;53.422;14.530;2022-09-03T14:21:46;26.95;35.12
66096;SHT31;53861;53.422;14.530;2022-09-03T14:24:21;26.56;35.47
66096;SHT31;53861;53.422;14.530;2022-09-03T14:26:51;25.53;36.65
66096;SHT31;53861;53.422;14.530;2022-09-03T14:29:23;25.36;37.62
66096;SHT31;53861;53.422;14.530;2022-09-03T14:32:16;25.14;40.13
66096;SHT31;53861;53.422;14.530;2022-09-03T14:35:05;25.14;39.06
66096;SHT31;53861;53.422;14.530;2022-09-03T14:40:41;24.60;38.82
66096;SHT31;53861;53.422;14.530;2022-09-03T14:43:24;24.21;38.27
66096;SHT31;53861;53.422;14.530;2022-09-03T14:46:13;24.40;40.63
66096;SHT31;53861;53.422;14.530;2022-09-03T14:48:57;24.85;39.45
66096;SHT31;53861;53.422;14.530;2022-09-03T14:51:38;25.12;38.74
66096;SHT31;53861;53.422;14.530;2022-09-03T14:57:37;24.57;38.63
66096;SHT31;53861;53.422;14.530;2022-09-03T15:00:07;24.36;37.73
66096;SHT31;53861;53.422;14.530;2022-09-03T15:02:55;24.46;36.85
66096;SHT31;53861;53.422;14.530;2022-09-03T15:05:41;24.14;39.95
66096;SHT31;53861;53.422;14.530;2022-09-03T15:08:16;24.14;39.19
66096;SHT31;53861;53.422;14.530;2022-09-03T15:10:52;23.92;40.17
66096;SHT31;53861;53.422;14.530;2022-09-03T15:13:23;23.76;40.28
66096;SHT31;53861;53.422;14.530;2022-09-03T15:16:02;23.92;41.80
66096;SHT31;53861;53.422;14.530;2022-09-03T15:18:42;23.92;40.24
66096;SHT31;53861;53.422;14.530;2022-09-03T15:21:23;24.00;39.37
66096;SHT31;53861;53.422;14.530;2022-09-03T15:24:00;23.92;39.06
66096;SHT31;53861;53.422;14.530;2022-09-03T15:29:47;24.27;38.89
66096;SHT31;53861;53.422;14.530;2022-09-03T15:32:25;24.34;38.70
66096;SHT31;53861;53.422;14.530;2022-09-03T15:35:06;24.02;39.16
66096;SHT31;53861;53.422;14.530;2022-09-03T15:37:42;24.40;40.37
66096;SHT31;53861;53.422;14.530;2022-09-03T15:40:21;24.47;40.95
66096;SHT31;53861;53.422;14.530;2022-09-03T15:42:52;24.34;38.78
66096;SHT31;53861;53.422;14.530;2022-09-03T15:45:32;23.90;40.59
66096;SHT31;53861;53.422;14.530;2022-09-03T15:48:09;23.49;40.21
66096;SHT31;53861;53.422;14.530;2022-09-03T15:50:50;22.94;41.50
66096;SHT31;53861;53.422;14.530;2022-09-03T15:53:28;22.71;40.29
66096;SHT31;53861;53.422;14.530;2022-09-03T15:56:09;22.64;42.13
66096;SHT31;53861;53.422;14.530;2022-09-03T15:58:42;22.53;41.23
66096;SHT31;53861;53.422;14.530;2022-09-03T16:01:21;22.40;44.02
66096;SHT31;53861;53.422;14.530;2022-09-03T16:03:57;22.60;42.99
66096;SHT31;53861;53.422;14.530;2022-09-03T16:06:31;22.80;42.68